Time;durP1;ratioP1;P1;durP2;ratioP2;P2;SDS_P1;SDS_P2;PMS_P1;PMS_P2;Temp;Humidity;BMP_temperature;BMP_pressure;BME280_temperature;BME280_humidity;BME280_pressure;Samples;Min_cycle;Max_cycle;Signal;HPM_P1;HPM_P2
2023/06/19 00:01:58;;;;;;;8.65;6.28;;;23.40;60.40;;;;;;5056180;28;20064;-78
2023/06/19 00:04:23;;;;;;;9.75;5.22;;;23.40;60.50;;;;;;5054882;28;20036;-78
2023/06/19 00:06:49;;;;;;;8.27;5.70;;;23.30;60.50;;;;;;5056148;28;20037;-79
2023/06/19 00:09:15;;;;;;;8.88;6.32;;;23.30;60.60;;;;;;5055909;28;20469;-79
2023/06/19 00:11:40;;;;;;;8.90;5.95;;;23.30;61.00;;;;;;5054997;28;20052;-79
2023/06/19 00:14:06;;;;;;;8.68;5.88;;;23.30;61.30;;;;;;5054892;28;20481;-79
2023/06/19 00:16:32;;;;;;;8.48;5.57;;;23.20;61.50;;;;;;5054468;28;20063;-79
2023/06/19 00:18:58;;;;;;;8.10;5.80;;;23.20;61.60;;;;;;5055962;28;20108;-79
2023/06/19 00:21:24;;;;;;;9.07;5.72;;;23.20;61.50;;;;;;5055972;28;20470;-78
2023/06/19 00:23:51;;;;;;;7.00;4.88;;;23.20;61.80;;;;;;5054486;28;20029;-79
2023/06/19 00:26:17;;;;;;;9.80;5.68;;;23.20;61.80;;;;;;5055531;28;20059;-80
2023/06/19 00:28:45;;;;;;;9.30;5.55;;;23.20;62.20;;;;;;5054464;28;20043;-78
2023/06/19 00:31:13;;;;;;;8.50;5.95;;;23.10;62.50;;;;;;5055657;28;20028;-80
2023/06/19 00:33:39;;;;;;;8.15;4.68;;;23.10;63.00;;;;;;5055611;28;20040;-78
2023/06/19 00:36:12;;;;;;;7.53;5.43;;;23.10;63.30;;;;;;5054259;28;20085;-78
2023/06/19 00:38:39;;;;;;;11.23;5.25;;;23.00;63.40;;;;;;5055495;28;20037;-78
2023/06/19 00:41:05;;;;;;;7.43;5.13;;;23.00;63.70;;;;;;5054065;28;20056;-78
2023/06/19 00:43:34;;;;;;;9.65;6.05;;;23.10;64.00;;;;;;5054270;28;20036;-78
2023/06/19 00:46:01;;;;;;;7.28;4.38;;;23.00;64.30;;;;;;5054088;28;20071;-78
2023/06/19 00:48:31;;;;;;;8.98;4.78;;;23.00;64.50;;;;;;5054068;28;20466;-78
2023/06/19 00:50:57;;;;;;;8.18;5.22;;;23.00;64.60;;;;;;5055195;28;20032;-78
2023/06/19 00:53:24;;;;;;;9.20;5.20;;;23.00;64.70;;;;;;5055189;28;20034;-78
2023/06/19 00:55:51;;;;;;;8.13;5.43;;;23.00;64.80;;;;;;5055138;28;20021;-78
2023/06/19 00:58:18;;;;;;;6.32;4.20;;;22.90;64.80;;;;;;5048004;28;20478;-79
2023/06/19 01:00:44;;;;;;;8.27;4.78;;;22.90;64.70;;;;;;5040181;28;20108;-78
2023/06/19 01:03:09;;;;;;;8.98;4.70;;;22.90;64.80;;;;;;5034645;28;20108;-77
2023/06/19 01:05:35;;;;;;;10.05;4.65;;;22.90;64.70;;;;;;5043596;28;20389;-77
2023/06/19 01:08:14;;;;;;;7.78;4.95;;;22.90;64.80;;;;;;5053522;28;20061;-78
2023/06/19 01:10:56;;;;;;;7.38;5.03;;;22.90;64.70;;;;;;5053055;28;20029;-78
2023/06/19 01:13:47;;;;;;;8.43;4.57;;;22.90;64.60;;;;;;5054707;28;20413;-78
2023/06/19 01:16:14;;;;;;;7.32;4.82;;;22.90;64.50;;;;;;5054705;28;20021;-77
2023/06/19 01:18:40;;;;;;;6.65;4.50;;;22.90;64.60;;;;;;5054758;28;20037;-78
2023/06/19 01:21:23;;;;;;;8.40;4.78;;;22.90;64.60;;;;;;5053289;28;20104;-78
2023/06/19 01:23:49;;;;;;;8.43;4.75;;;22.90;64.80;;;;;;5054572;28;20037;-79
2023/06/19 01:26:18;;;;;;;7.28;4.10;;;22.80;64.70;;;;;;5053238;28;20033;-78
2023/06/19 01:28:45;;;;;;;7.90;4.60;;;22.80;64.90;;;;;;5054669;28;20436;-78
2023/06/19 01:31:21;;;;;;;6.18;4.22;;;22.80;64.90;;;;;;5054493;28;20029;-78
2023/06/19 01:33:48;;;;;;;9.73;4.85;;;22.70;65.10;;;;;;5054359;28;20556;-78
2023/06/19 01:36:14;;;;;;;7.30;4.22;;;22.70;65.40;;;;;;5054244;28;20039;-77
2023/06/19 01:38:42;;;;;;;8.65;4.30;;;22.60;65.30;;;;;;5053128;28;20028;-79
2023/06/19 01:41:09;;;;;;;6.32;3.75;;;22.60;65.70;;;;;;5052951;28;20116;-79
2023/06/19 01:43:35;;;;;;;6.38;4.13;;;22.50;65.60;;;;;;5053269;28;20465;-79
2023/06/19 01:46:01;;;;;;;7.47;4.20;;;22.50;66.20;;;;;;5054228;28;20025;-79
2023/06/19 01:48:27;;;;;;;6.13;3.95;;;22.40;66.20;;;;;;5052802;28;20120;-79
2023/06/19 01:50:53;;;;;;;6.70;4.40;;;22.40;66.50;;;;;;5054052;28;20024;-79
2023/06/19 01:53:19;;;;;;;7.50;4.53;;;22.30;66.80;;;;;;5053924;28;20381;-80
2023/06/19 01:55:45;;;;;;;7.95;3.63;;;22.30;66.90;;;;;;5054007;28;20040;-79
2023/06/19 01:58:11;;;;;;;6.72;4.07;;;22.30;67.00;;;;;;5054054;28;20107;-79
2023/06/19 02:00:37;;;;;;;6.55;3.40;;;22.20;67.20;;;;;;5052754;28;20033;-73
2023/06/19 02:03:05;;;;;;;7.30;3.70;;;22.20;67.60;;;;;;5053743;28;20029;-72
2023/06/19 02:05:31;;;;;;;8.18;4.10;;;22.10;67.70;;;;;;5035975;28;20033;-72
2023/06/19 02:07:58;;;;;;;5.35;3.33;;;22.10;68.00;;;;;;5053732;28;20028;-73
2023/06/19 02:10:25;;;;;;;7.68;4.20;;;22.10;68.20;;;;;;5053642;28;20133;-72
2023/06/19 02:12:50;;;;;;;5.68;3.80;;;22.00;68.40;;;;;;5053591;28;20025;-73
2023/06/19 02:15:16;;;;;;;6.93;3.50;;;21.90;68.30;;;;;;5053600;28;20040;-73
2023/06/19 02:17:42;;;;;;;6.65;3.80;;;21.90;68.50;;;;;;5052443;28;20060;-72
2023/06/19 02:20:11;;;;;;;8.15;3.45;;;21.80;69.20;;;;;;5053559;28;20029;-72
2023/06/19 02:22:38;;;;;;;8.05;3.60;;;21.80;69.80;;;;;;5053569;28;20017;-73
2023/06/19 02:25:04;;;;;;;10.93;3.20;;;21.80;70.00;;;;;;5053623;28;20021;-73
2023/06/19 02:27:30;;;;;;;5.40;3.50;;;21.70;70.50;;;;;;5053440;28;20388;-72
2023/06/19 02:29:56;;;;;;;6.35;3.03;;;21.70;70.70;;;;;;5035950;28;20112;-73
2023/06/19 02:32:21;;;;;;;5.18;2.88;;;21.60;70.80;;;;;;5052117;28;20025;-72
2023/06/19 02:34:47;;;;;;;5.45;3.15;;;21.50;71.00;;;;;;5053295;28;20025;-72
2023/06/19 02:37:13;;;;;;;6.72;3.20;;;21.50;71.00;;;;;;5052140;28;20040;-72
2023/06/19 02:39:39;;;;;;;7.90;3.20;;;21.40;71.00;;;;;;5052367;28;20025;-72
2023/06/19 02:42:06;;;;;;;5.85;3.17;;;21.40;71.60;;;;;;5035571;28;20497;-72
2023/06/19 02:44:31;;;;;;;7.20;3.30;;;21.30;71.60;;;;;;5051967;28;20025;-72
2023/06/19 02:46:57;;;;;;;4.80;2.95;;;21.30;71.60;;;;;;5035195;28;20033;-72
2023/06/19 02:49:23;;;;;;;5.85;3.08;;;21.30;71.80;;;;;;5053196;28;20029;-72
2023/06/19 02:51:48;;;;;;;7.38;3.72;;;21.20;72.00;;;;;;5053053;28;20033;-72
2023/06/19 02:54:14;;;;;;;5.88;2.90;;;21.20;72.10;;;;;;5053368;28;20114;-72
2023/06/19 02:56:40;;;;;;;5.10;3.00;;;21.20;72.30;;;;;;5051793;28;20056;-72
2023/06/19 02:59:05;;;;;;;5.38;2.83;;;21.10;72.80;;;;;;5053104;28;20033;-72
2023/06/19 03:01:31;;;;;;;5.75;3.13;;;21.00;73.50;;;;;;5051948;28;20037;-72
2023/06/19 03:03:56;;;;;;;8.07;2.88;;;21.00;73.70;;;;;;5053038;28;20025;-72
2023/06/19 03:06:22;;;;;;;4.43;2.38;;;21.00;74.00;;;;;;5051710;28;20037;-73
2023/06/19 03:08:48;;;;;;;5.10;1.98;;;20.90;74.30;;;;;;5051963;28;20025;-72
2023/06/19 03:11:14;;;;;;;3.95;2.03;;;20.90;74.80;;;;;;5051704;28;20460;-72
2023/06/19 03:13:51;;;;;;;4.63;1.55;;;20.90;75.80;;;;;;5052857;28;20033;-74
2023/06/19 03:16:16;;;;;;;3.17;1.58;;;20.80;76.20;;;;;;5052740;28;20120;-72
2023/06/19 03:18:45;;;;;;;3.40;1.75;;;20.80;76.30;;;;;;5051894;28;20525;-73
2023/06/19 03:21:15;;;;;;;4.20;1.88;;;20.80;76.40;;;;;;5035102;28;20032;-73
2023/06/19 03:23:43;;;;;;;3.72;1.83;;;20.80;76.50;;;;;;5054048;28;20028;-73
2023/06/19 03:26:10;;;;;;;4.45;1.80;;;20.80;76.30;;;;;;5056652;28;20090;-73
2023/06/19 03:28:37;;;;;;;3.30;1.85;;;20.80;76.50;;;;;;5056946;28;20036;-73
2023/06/19 03:31:02;;;;;;;5.70;2.40;;;20.80;76.60;;;;;;5056677;28;20116;-73
2023/06/19 03:33:28;;;;;;;4.13;1.90;;;20.70;77.00;;;;;;5056958;28;20445;-72
2023/06/19 03:35:54;;;;;;;3.40;1.52;;;20.70;77.10;;;;;;5038682;28;20382;-73
2023/06/19 03:38:20;;;;;;;3.78;1.70;;;20.60;77.10;;;;;;5056648;28;20029;-73
2023/06/19 03:40:46;;;;;;;4.30;2.08;;;20.60;77.50;;;;;;5055073;28;20492;-73
2023/06/19 03:43:11;;;;;;;3.85;1.70;;;20.60;77.50;;;;;;5035621;28;20034;-73
2023/06/19 03:45:37;;;;;;;3.78;1.73;;;20.60;77.80;;;;;;5035696;28;20033;-73
2023/06/19 03:48:03;;;;;;;4.30;1.70;;;20.60;77.60;;;;;;5034762;28;20022;-73
2023/06/19 03:50:29;;;;;;;4.30;1.77;;;20.60;77.80;;;;;;5035099;28;20386;-73
2023/06/19 03:52:54;;;;;;;6.85;2.10;;;20.70;78.00;;;;;;5036411;28;20108;-73
2023/06/19 03:55:20;;;;;;;3.40;1.67;;;20.70;78.20;;;;;;5034952;28;20029;-73
2023/06/19 03:57:46;;;;;;;3.53;1.65;;;20.60;78.20;;;;;;5018601;28;20049;-73
2023/06/19 04:00:13;;;;;;;4.45;1.60;;;20.70;78.40;;;;;;5034898;28;20025;-74
2023/06/19 04:02:39;;;;;;;4.05;1.42;;;20.70;78.20;;;;;;5036166;28;20025;-73
2023/06/19 04:05:05;;;;;;;2.75;1.48;;;20.70;78.40;;;;;;5018519;28;20084;-73
2023/06/19 04:07:31;;;;;;;4.40;2.00;;;20.70;78.50;;;;;;5034955;28;20367;-74
2023/06/19 04:09:58;;;;;;;4.30;1.95;;;20.70;78.70;;;;;;5036043;28;20082;-71
2023/06/19 04:12:24;;;;;;;4.47;2.00;;;20.70;78.60;;;;;;5036055;28;20056;-72
2023/06/19 04:14:49;;;;;;;7.05;2.03;;;20.70;79.10;;;;;;5035883;28;20053;-73
2023/06/19 04:17:17;;;;;;;4.18;1.77;;;20.70;79.20;;;;;;5035718;28;20145;-72
2023/06/19 04:19:42;;;;;;;3.45;1.75;;;20.70;79.10;;;;;;5036870;28;20088;-72
2023/06/19 04:22:08;;;;;;;5.80;2.00;;;20.70;79.60;;;;;;5038173;28;20029;-72
2023/06/19 04:24:35;;;;;;;3.17;1.45;;;20.70;79.80;;;;;;5052844;28;20124;-72
2023/06/19 04:27:01;;;;;;;3.85;1.92;;;20.70;79.80;;;;;;5047231;28;20025;-71
2023/06/19 04:29:31;;;;;;;4.30;2.08;;;20.60;80.50;;;;;;5051439;28;20021;-72
2023/06/19 04:31:59;;;;;;;4.93;1.98;;;20.70;80.50;;;;;;5034606;28;20025;-73
2023/06/19 04:34:25;;;;;;;4.07;2.33;;;20.60;80.70;;;;;;5032225;28;20033;-72
2023/06/19 04:36:51;;;;;;;7.25;1.90;;;20.70;81.00;;;;;;5034172;28;20490;-72
2023/06/19 04:39:17;;;;;;;9.98;2.28;;;20.70;81.00;;;;;;5035884;28;20094;-72
2023/06/19 04:41:46;;;;;;;3.90;2.22;;;20.60;81.10;;;;;;5035379;28;20041;-72
2023/06/19 04:44:11;;;;;;;5.25;2.10;;;20.60;81.30;;;;;;5034116;28;20087;-72
2023/06/19 04:46:37;;;;;;;4.97;2.38;;;20.60;81.60;;;;;;5033943;28;20030;-72
2023/06/19 04:49:04;;;;;;;5.80;2.03;;;20.60;81.50;;;;;;5017616;28;20473;-72
2023/06/19 04:51:32;;;;;;;5.70;2.47;;;20.60;81.70;;;;;;5033924;28;20386;-73
2023/06/19 04:53:58;;;;;;;6.03;2.65;;;20.60;81.80;;;;;;5033881;28;20482;-73
2023/06/19 04:56:24;;;;;;;6.30;3.10;;;20.60;82.20;;;;;;5034115;28;20041;-73
2023/06/19 04:58:51;;;;;;;4.13;2.33;;;20.70;82.50;;;;;;5033890;28;20087;-74
2023/06/19 05:01:17;;;;;;;7.47;2.42;;;20.60;82.10;;;;;;5033804;28;20037;-73
2023/06/19 05:03:45;;;;;;;5.35;2.92;;;20.60;82.30;;;;;;5033844;28;20029;-73
2023/06/19 05:06:11;;;;;;;4.65;2.72;;;20.60;82.70;;;;;;5033648;28;20036;-73
2023/06/19 05:08:37;;;;;;;3.60;2.00;;;20.60;82.70;;;;;;5034924;28;20033;-73
2023/06/19 05:11:03;;;;;;;6.88;3.33;;;20.60;82.60;;;;;;5033701;28;20032;-74
2023/06/19 05:13:29;;;;;;;8.70;3.53;;;20.70;83.20;;;;;;5034564;28;20082;-74
2023/06/19 05:15:55;;;;;;;8.02;3.17;;;20.60;83.20;;;;;;5044053;28;20029;-74
2023/06/19 05:18:21;;;;;;;4.90;2.15;;;20.60;83.30;;;;;;5053375;28;20103;-74
2023/06/19 05:20:47;;;;;;;5.65;3.05;;;20.60;83.40;;;;;;5054617;28;20481;-73
2023/06/19 05:23:13;;;;;;;4.88;2.67;;;20.50;83.80;;;;;;5036632;28;20036;-73
2023/06/19 05:25:38;;;;;;;4.47;2.75;;;20.50;83.90;;;;;;5046115;28;20045;-73
2023/06/19 05:28:04;;;;;;;5.43;2.70;;;20.50;84.30;;;;;;5040683;28;20072;-74
2023/06/19 05:30:30;;;;;;;5.47;3.03;;;20.50;84.00;;;;;;5038334;28;20087;-74
2023/06/19 05:32:56;;;;;;;4.80;2.97;;;20.50;84.90;;;;;;5032920;28;20028;-73
2023/06/19 05:35:21;;;;;;;4.85;2.65;;;20.50;84.60;;;;;;5034476;28;20033;-80
2023/06/19 05:37:47;;;;;;;5.53;3.00;;;20.50;85.30;;;;;;5034347;28;20039;-81
2023/06/19 05:40:13;;;;;;;5.45;3.20;;;20.50;84.50;;;;;;5042322;28;20044;-82
2023/06/19 05:42:40;;;;;;;8.50;3.47;;;20.60;84.70;;;;;;5045219;28;20033;-81
2023/06/19 05:45:07;;;;;;;6.45;3.20;;;20.60;85.00;;;;;;5027429;28;20045;-81
2023/06/19 05:47:33;;;;;;;7.63;3.97;;;20.70;84.80;;;;;;5042829;28;20017;-82
2023/06/19 05:49:59;;;;;;;5.63;3.55;;;20.70;85.00;;;;;;5041736;28;20043;-82
2023/06/19 05:52:24;;;;;;;6.80;3.78;;;20.70;84.80;;;;;;5047569;28;20032;-81
2023/06/19 05:54:50;;;;;;;6.18;3.60;;;20.70;84.70;;;;;;5031029;28;20017;-81
2023/06/19 05:57:20;;;;;;;6.30;3.35;;;20.80;84.80;;;;;;5035218;28;20037;-82
2023/06/19 05:59:49;;;;;;;5.40;3.30;;;20.80;84.60;;;;;;5032648;28;20029;-74
2023/06/19 06:02:15;;;;;;;6.03;3.72;;;20.80;84.50;;;;;;5032517;28;20481;-74
2023/06/19 06:04:42;;;;;;;7.07;3.72;;;20.90;84.40;;;;;;5034020;28;20057;-75
2023/06/19 06:07:08;;;;;;;7.80;5.07;;;20.90;84.50;;;;;;5032424;28;20428;-74
2023/06/19 06:09:34;;;;;;;7.30;4.32;;;21.00;84.60;;;;;;5033864;28;20388;-73
2023/06/19 06:12:00;;;;;;;10.70;4.55;;;20.90;84.40;;;;;;5033562;28;20029;-74
2023/06/19 06:14:26;;;;;;;7.07;4.50;;;21.00;84.60;;;;;;5036042;28;20375;-73
2023/06/19 06:16:52;;;;;;;10.50;5.25;;;21.00;84.50;;;;;;5043823;28;20068;-81
2023/06/19 06:19:20;;;;;;;8.80;5.90;;;21.00;84.60;;;;;;5046114;28;20029;-81
2023/06/19 06:21:45;;;;;;;9.15;4.85;;;21.00;84.60;;;;;;5051631;28;20037;-81
2023/06/19 06:24:11;;;;;;;6.30;4.75;;;21.00;84.50;;;;;;5051888;28;20028;-82
2023/06/19 06:26:37;;;;;;;8.45;5.95;;;21.00;84.40;;;;;;5053141;28;20033;-80
2023/06/19 06:29:03;;;;;;;8.00;5.47;;;21.00;84.80;;;;;;5053310;28;20036;-82
2023/06/19 06:31:28;;;;;;;11.70;6.18;;;21.00;84.80;;;;;;5053095;28;20474;-80
2023/06/19 06:33:54;;;;;;;9.50;4.93;;;20.90;85.00;;;;;;5042977;28;20030;-80
2023/06/19 06:36:20;;;;;;;10.63;5.63;;;20.90;85.10;;;;;;5052896;28;20099;-80
2023/06/19 06:38:45;;;;;;;8.88;5.90;;;20.80;85.50;;;;;;5051776;28;20506;-80
2023/06/19 06:41:11;;;;;;;9.77;6.10;;;20.80;85.80;;;;;;5053100;28;20060;-81
2023/06/19 06:43:38;;;;;;;9.43;6.20;;;20.80;86.10;;;;;;5035066;28;20029;-79
2023/06/19 06:46:04;;;;;;;8.07;6.13;;;20.70;86.20;;;;;;5035363;28;20116;-79
2023/06/19 06:48:30;;;;;;;8.98;6.20;;;20.70;86.20;;;;;;5046887;28;20101;-80
2023/06/19 06:51:01;;;;;;;9.25;6.05;;;20.60;86.50;;;;;;5050304;28;20052;-80
2023/06/19 06:53:27;;;;;;;9.63;5.88;;;20.60;86.40;;;;;;5051748;28;20393;-80
2023/06/19 06:55:53;;;;;;;7.72;5.25;;;20.60;86.60;;;;;;5053170;28;20083;-82
2023/06/19 06:58:19;;;;;;;8.90;6.15;;;20.60;86.80;;;;;;5054834;28;20481;-84
2023/06/19 07:00:45;;;;;;;9.50;6.47;;;20.60;86.80;;;;;;5048015;28;20473;-82
2023/06/19 07:03:11;;;;;;;8.77;5.38;;;20.60;85.80;;;;;;5054328;28;20041;-82
2023/06/19 07:05:36;;;;;;;7.43;4.82;;;20.50;85.20;;;;;;5057096;28;20025;-75
2023/06/19 07:08:03;;;;;;;6.43;4.43;;;20.50;84.90;;;;;;5039191;28;20036;-76
2023/06/19 07:10:29;;;;;;;7.20;4.13;;;20.50;84.70;;;;;;5056973;28;20021;-74
2023/06/19 07:12:55;;;;;;;7.53;4.68;;;20.50;84.50;;;;;;5056076;28;20017;-74
2023/06/19 07:15:21;;;;;;;7.53;4.80;;;20.60;84.40;;;;;;5046362;28;20488;-73
2023/06/19 07:17:47;;;;;;;7.13;4.63;;;20.70;84.00;;;;;;5047189;28;20057;-75
2023/06/19 07:20:13;;;;;;;8.10;4.85;;;20.70;84.20;;;;;;5045324;28;20026;-75
2023/06/19 07:22:39;;;;;;;7.20;4.22;;;20.80;83.30;;;;;;5046844;28;20063;-74
2023/06/19 07:25:06;;;;;;;7.80;3.75;;;20.90;83.10;;;;;;5055488;28;20107;-74
2023/06/19 07:27:31;;;;;;;5.85;4.20;;;21.00;82.40;;;;;;5037110;28;20041;-74
2023/06/19 07:29:57;;;;;;;8.52;4.40;;;21.10;81.80;;;;;;5035363;28;20025;-75
2023/06/19 07:32:23;;;;;;;9.32;5.68;;;21.20;80.80;;;;;;5035624;28;20120;-74
2023/06/19 07:34:48;;;;;;;6.10;3.97;;;21.30;79.40;;;;;;5033786;28;20030;-75
2023/06/19 07:37:17;;;;;;;7.07;4.75;;;21.40;79.20;;;;;;5036753;28;20451;-74
2023/06/19 07:39:50;;;;;;;9.88;5.80;;;21.40;78.00;;;;;;5035108;28;20030;-74
2023/06/19 07:42:18;;;;;;;7.32;5.28;;;21.40;77.60;;;;;;5036576;28;20423;-75
2023/06/19 07:44:44;;;;;;;8.70;5.90;;;21.40;77.60;;;;;;5036572;28;20474;-73
2023/06/19 07:47:10;;;;;;;9.38;6.13;;;21.50;77.50;;;;;;5036452;28;20022;-74
2023/06/19 07:49:36;;;;;;;11.52;8.32;;;21.50;77.60;;;;;;5036464;28;20491;-82
2023/06/19 07:52:06;;;;;;;10.65;8.50;;;21.60;77.20;;;;;;5043144;28;20488;-82
2023/06/19 07:54:34;;;;;;;14.15;7.95;;;21.60;76.00;;;;;;5054855;28;20021;-85
2023/06/19 07:57:00;;;;;;;10.35;7.78;;;21.60;75.90;;;;;;5055618;28;20041;-78
2023/06/19 07:59:26;;;;;;;9.80;7.70;;;21.60;75.70;;;;;;5054752;28;20040;-78
2023/06/19 08:01:52;;;;;;;10.02;7.75;;;21.60;75.30;;;;;;5054828;28;20025;-82
2023/06/19 08:04:17;;;;;;;10.90;8.40;;;21.60;75.40;;;;;;5056046;28;20021;-81
2023/06/19 08:06:43;;;;;;;12.25;7.78;;;21.60;75.70;;;;;;5042927;28;20037;-79
2023/06/19 08:09:09;;;;;;;11.13;7.72;;;21.70;75.70;;;;;;5048561;28;20025;-80
2023/06/19 08:11:35;;;;;;;12.23;8.40;;;21.80;75.00;;;;;;5055838;28;20060;-79
2023/06/19 08:14:01;;;;;;;11.10;8.18;;;21.70;74.70;;;;;;5038155;28;20021;-79
2023/06/19 08:16:26;;;;;;;11.68;8.45;;;21.80;74.20;;;;;;5054422;28;20553;-81
2023/06/19 08:18:52;;;;;;;12.55;8.82;;;21.70;74.10;;;;;;5054448;28;20029;-80
2023/06/19 08:21:20;;;;;;;10.52;8.23;;;21.70;73.80;;;;;;5055624;28;20059;-81
2023/06/19 08:23:45;;;;;;;10.15;7.88;;;21.80;73.80;;;;;;5054401;28;20389;-82
2023/06/19 08:26:11;;;;;;;15.18;8.88;;;21.80;73.60;;;;;;5054420;28;20029;-79
2023/06/19 08:28:37;;;;;;;12.23;7.43;;;21.80;73.20;;;;;;5055414;28;20112;-79
2023/06/19 08:31:03;;;;;;;8.55;6.45;;;21.90;73.40;;;;;;5054151;28;20600;-82
2023/06/19 08:33:28;;;;;;;11.77;7.93;;;21.90;73.60;;;;;;5055544;28;20037;-82
2023/06/19 08:35:54;;;;;;;9.68;6.93;;;22.00;73.40;;;;;;5055472;28;20025;-82
2023/06/19 08:38:20;;;;;;;13.40;8.45;;;22.00;73.30;;;;;;5055269;28;20032;-81
2023/06/19 08:40:45;;;;;;;10.40;7.90;;;22.00;73.50;;;;;;5055195;28;20041;-80
2023/06/19 08:43:11;;;;;;;12.48;9.40;;;22.10;73.50;;;;;;5054094;28;20029;-79
2023/06/19 08:45:37;;;;;;;12.48;8.23;;;22.20;73.20;;;;;;5053808;28;20036;-81
2023/06/19 08:48:04;;;;;;;17.83;10.48;;;22.20;73.10;;;;;;5055309;28;20021;-81
2023/06/19 08:50:33;;;;;;;11.77;8.77;;;22.20;73.40;;;;;;5055158;28;20466;-82
2023/06/19 08:52:58;;;;;;;12.60;9.02;;;22.30;73.40;;;;;;5053722;28;20075;-80
2023/06/19 08:55:25;;;;;;;10.23;8.00;;;22.30;73.20;;;;;;5052651;28;20033;-81
2023/06/19 08:57:52;;;;;;;11.32;7.80;;;22.40;73.30;;;;;;5054328;28;20071;-81
2023/06/19 09:00:29;;;;;;;10.27;6.78;;;22.50;73.30;;;;;;5037361;28;20020;-80
2023/06/19 09:03:02;;;;;;;11.57;8.52;;;22.60;73.40;;;;;;5055107;28;20040;-82
2023/06/19 09:05:28;;;;;;;;;;;22.70;73.40;;;;;;5055306;28;20056;-80
2023/06/19 09:07:56;;;;;;;9.85;6.60;;;22.70;73.30;;;;;;5053822;28;19940;-78
2023/06/19 09:10:23;;;;;;;9.85;6.18;;;22.80;73.20;;;;;;5054917;28;20096;-81
2023/06/19 09:13:03;;;;;;;11.55;7.93;;;22.80;73.00;;;;;;5054842;28;20057;-80
2023/06/19 09:15:36;;;;;;;11.38;7.68;;;22.90;72.70;;;;;;5053527;28;20520;-83
2023/06/19 09:18:06;;;;;;;11.07;7.22;;;22.90;72.60;;;;;;5054676;28;20060;-81
2023/06/19 09:20:33;;;;;;;11.77;7.57;;;23.00;72.50;;;;;;5054092;28;20079;-80
2023/06/19 09:23:00;;;;;;;9.68;7.00;;;23.00;72.40;;;;;;5054682;28;20075;-81
2023/06/19 09:25:26;;;;;;;10.60;7.07;;;23.10;72.30;;;;;;5054581;28;20087;-83
2023/06/19 09:27:54;;;;;;;10.18;7.18;;;23.20;72.20;;;;;;5036964;28;20048;-82
2023/06/19 09:30:20;;;;;;;9.85;7.82;;;23.20;71.90;;;;;;5054621;28;20029;-80
2023/06/19 09:32:45;;;;;;;10.32;7.38;;;23.30;71.80;;;;;;5054518;28;20021;-79
2023/06/19 09:35:11;;;;;;;11.25;7.40;;;23.30;71.60;;;;;;5053198;28;20440;-82
2023/06/19 09:37:39;;;;;;;10.70;7.75;;;23.40;71.40;;;;;;5053454;28;20481;-81
2023/06/19 09:40:10;;;;;;;10.15;7.75;;;23.40;71.10;;;;;;5054389;28;20382;-80
2023/06/19 09:42:42;;;;;;;12.82;8.52;;;23.50;70.80;;;;;;5054237;28;20041;-79
2023/06/19 09:45:10;;;;;;;10.32;8.73;;;23.60;70.70;;;;;;5052823;28;20504;-79
2023/06/19 09:47:35;;;;;;;10.73;8.20;;;23.70;70.50;;;;;;5052597;28;20397;-80
2023/06/19 09:50:03;;;;;;;14.05;9.85;;;23.70;70.30;;;;;;5052849;28;20025;-79
2023/06/19 09:52:29;;;;;;;13.30;8.60;;;23.70;70.20;;;;;;5054197;28;20029;-79
2023/06/19 09:54:57;;;;;;;10.88;8.23;;;23.80;70.00;;;;;;5054213;28;20025;-77
2023/06/19 09:57:23;;;;;;;10.95;7.30;;;23.80;69.70;;;;;;5052762;28;20021;-81
2023/06/19 09:59:56;;;;;;;10.05;7.38;;;23.80;69.50;;;;;;5053757;28;20389;-81
2023/06/19 10:02:23;;;;;;;11.35;8.68;;;23.90;69.30;;;;;;5053791;28;20033;-81
2023/06/19 10:04:56;;;;;;;11.20;8.35;;;23.90;68.90;;;;;;5053730;28;20051;-81
2023/06/19 10:07:23;;;;;;;9.65;7.53;;;23.90;68.70;;;;;;5053814;28;20112;-79
2023/06/19 10:10:06;;;;;;;10.38;7.47;;;23.90;68.60;;;;;;5053471;28;20017;-82
2023/06/19 10:12:47;;;;;;;10.55;7.95;;;24.00;68.60;;;;;;5052362;28;20017;-82
2023/06/19 10:15:20;;;;;;;12.20;8.88;;;24.00;68.40;;;;;;5053580;28;20025;-82
2023/06/19 10:17:47;;;;;;;11.52;9.82;;;24.10;68.40;;;;;;5053500;28;20110;-78
2023/06/19 10:20:31;;;;;;;11.82;8.98;;;24.10;68.20;;;;;;5053813;28;20024;-80
2023/06/19 10:23:17;;;;;;;11.48;9.38;;;24.20;67.80;;;;;;5050331;28;20029;-80
2023/06/19 10:25:44;;;;;;;11.10;8.00;;;24.20;67.80;;;;;;5049621;28;20025;-79
2023/06/19 10:28:23;;;;;;;10.77;8.75;;;24.30;67.70;;;;;;5052393;28;20104;-79
2023/06/19 10:30:59;;;;;;;12.32;9.38;;;24.40;68.20;;;;;;5052992;28;20029;-83
2023/06/19 10:33:27;;;;;;;12.48;10.05;;;24.50;67.30;;;;;;5035465;28;20025;-78
2023/06/19 10:35:53;;;;;;;14.18;10.57;;;24.50;66.90;;;;;;5053274;28;20029;-79
2023/06/19 10:38:19;;;;;;;12.80;10.27;;;24.60;66.70;;;;;;5051947;28;20079;-83
2023/06/19 10:40:46;;;;;;;13.32;8.88;;;24.70;66.50;;;;;;5052040;28;20025;-81
2023/06/19 10:43:18;;;;;;;10.82;9.20;;;24.80;66.30;;;;;;5052155;28;20478;-81
2023/06/19 10:45:44;;;;;;;11.80;8.30;;;24.90;66.20;;;;;;5035996;28;20116;-79
2023/06/19 10:48:10;;;;;;;10.73;8.38;;;25.10;65.90;;;;;;5035630;28;20113;-81
2023/06/19 10:50:41;;;;;;;15.13;9.80;;;25.30;65.70;;;;;;5051998;28;20496;-81
2023/06/19 10:53:07;;;;;;;12.25;9.35;;;25.40;65.30;;;;;;5051951;28;20025;-81
2023/06/19 10:55:33;;;;;;;12.27;8.75;;;25.60;65.10;;;;;;5053239;28;20033;-80
2023/06/19 10:57:58;;;;;;;11.10;9.13;;;25.70;64.80;;;;;;5053030;28;20485;-75
2023/06/19 11:00:26;;;;;;;13.73;9.35;;;25.90;64.60;;;;;;5052890;28;20040;-75
2023/06/19 11:02:52;;;;;;;9.93;8.45;;;26.10;64.10;;;;;;5051806;28;20025;-75
2023/06/19 11:05:22;;;;;;;10.43;8.18;;;26.10;63.60;;;;;;5052956;28;20028;-75
2023/06/19 11:08:06;;;;;;;9.52;8.30;;;26.20;63.20;;;;;;5051436;28;20044;-74
2023/06/19 11:10:33;;;;;;;;;;;26.40;62.70;;;;;;5052343;28;20052;-75
2023/06/19 11:12:59;;;;;;;10.80;8.55;;;26.50;62.60;;;;;;5035362;28;19916;-75
2023/06/19 11:15:34;;;;;;;10.27;7.82;;;26.60;62.50;;;;;;5053018;28;20032;-75
2023/06/19 11:18:02;;;;;;;10.05;8.05;;;26.70;61.80;;;;;;5051421;28;20486;-75
2023/06/19 11:20:28;;;;;;;11.05;8.25;;;26.80;61.60;;;;;;5051552;28;20025;-74
2023/06/19 11:23:01;;;;;;;9.93;7.90;;;26.90;61.10;;;;;;5035303;28;20389;-75
2023/06/19 11:25:40;;;;;;;10.05;7.80;;;27.00;60.60;;;;;;5052821;28;20033;-75
2023/06/19 11:28:17;;;;;;;11.02;8.77;;;27.10;60.30;;;;;;5052757;28;20175;-74
2023/06/19 11:30:43;;;;;;;11.15;8.80;;;27.10;60.10;;;;;;5052588;28;20105;-75
2023/06/19 11:33:22;;;;;;;11.65;8.88;;;27.20;59.90;;;;;;5051665;28;20072;-74
2023/06/19 11:35:52;;;;;;;10.07;8.60;;;27.30;59.50;;;;;;5052810;28;20079;-75
2023/06/19 11:38:19;;;;;;;12.85;9.70;;;27.30;59.20;;;;;;5052753;28;20029;-75
2023/06/19 11:40:45;;;;;;;12.77;8.65;;;27.40;58.80;;;;;;5052543;28;20477;-75
2023/06/19 11:43:11;;;;;;;12.40;9.20;;;27.60;58.60;;;;;;5052741;28;20131;-75
2023/06/19 11:45:49;;;;;;;13.20;8.88;;;27.70;58.50;;;;;;5055117;28;20025;-75
2023/06/19 11:48:22;;;;;;;13.75;9.52;;;27.90;57.90;;;;;;5056274;28;20025;-76
2023/06/19 11:50:48;;;;;;;11.77;8.95;;;28.00;58.30;;;;;;5056152;28;20025;-75
2023/06/19 11:53:14;;;;;;;10.25;8.13;;;28.20;57.30;;;;;;5055267;28;20107;-75
2023/06/19 11:55:40;;;;;;;11.30;9.18;;;28.30;56.80;;;;;;5055029;28;20108;-75
2023/06/19 11:58:06;;;;;;;10.65;8.52;;;28.40;56.40;;;;;;5054951;28;20051;-75
2023/06/19 12:00:31;;;;;;;10.48;8.48;;;28.40;55.90;;;;;;5055948;28;20032;-78
2023/06/19 12:02:58;;;;;;;12.20;7.38;;;28.60;55.80;;;;;;5056186;28;20424;-76
2023/06/19 12:05:24;;;;;;;8.82;6.97;;;28.70;55.30;;;;;;5056178;28;20013;-76
2023/06/19 12:07:50;;;;;;;9.02;7.03;;;28.80;55.00;;;;;;5038010;28;20078;-76
2023/06/19 12:10:15;;;;;;;10.23;5.43;;;28.90;54.60;;;;;;5055972;28;20104;-76
2023/06/19 12:12:41;;;;;;;8.68;5.78;;;29.00;54.20;;;;;;5054629;28;20478;-75
2023/06/19 12:15:07;;;;;;;7.53;5.25;;;29.20;53.90;;;;;;5055906;28;20104;-75
2023/06/19 12:17:33;;;;;;;8.85;5.35;;;29.30;53.40;;;;;;5055757;28;20136;-74
2023/06/19 12:19:59;;;;;;;7.95;5.75;;;29.50;53.00;;;;;;5053644;28;20507;-75
2023/06/19 12:22:24;;;;;;;8.68;6.10;;;29.60;52.80;;;;;;5054516;28;20029;-74
2023/06/19 12:24:50;;;;;;;9.27;6.13;;;29.80;52.10;;;;;;5053680;28;20025;-75
2023/06/19 12:27:16;;;;;;;8.85;5.85;;;29.90;51.60;;;;;;5055312;28;20043;-74
2023/06/19 12:29:41;;;;;;;7.78;5.72;;;30.00;51.30;;;;;;5055475;28;20029;-74
2023/06/19 12:32:08;;;;;;;9.75;6.70;;;30.10;51.10;;;;;;5037583;28;20040;-74
2023/06/19 12:34:34;;;;;;;8.02;5.93;;;30.30;50.80;;;;;;5055798;28;20033;-72
2023/06/19 12:36:59;;;;;;;9.82;6.32;;;30.50;50.90;;;;;;5053982;28;20163;-76
2023/06/19 12:39:26;;;;;;;8.40;5.78;;;30.60;50.80;;;;;;5037542;28;20397;-75
2023/06/19 12:41:52;;;;;;;7.97;6.28;;;30.80;50.60;;;;;;5054098;28;20029;-75
2023/06/19 12:44:21;;;;;;;8.73;5.88;;;31.00;50.30;;;;;;5055139;28;20025;-74